Channel Islands National Park, CA

03:10 AM PST del 02 Marzo 2015 (GMT -0800)
WFO LOX | Change Station
CLOSE
Current Station
Stazione meteo personale
Location: Oxnard, CA
Altitudine: 57 ft
Stazioni meteo nelle vicinanze

Alt. 57 ft 34.21 °N, 119.14 °W | Updated 21 seconds ago

Clear
Sereno
45.5 °F
Sembra 46 °F
N
0.0
Vento Variabile Vento da NNE
Gusts 0.0 mph

Oggi
Massima -- | Minima -- °F
--% Possibilità di precip.
Ieri
Massima -- | Minima -- °F
Precip. -- in
6:24 AM 5:53 PM
Gobba a ponente, 90% visible
Pressione 29.90 in
Visibilità 10.0 miglia
Nuvole Sereno
Raffreddamento del vento 46 °F
Punto di rugiada 43 °F
Umidità 90%
Piovosità 0.00 in
Spessore del manto nevoso Non disponibile.
Raggi UV 0 fuori da 12
Polline 7.90 fuori da 12
Qualità dell'aria Non disponibile.
Flu Activity Non disponibile.
METAR KOXR 021051Z AUTO 04006KT 10SM CLR 09/06 A2990 RMK AO2 SLP123 T00890056

More Conditions Fewer Conditions

Pressione 29.90 in
Visibilità 10.0 miglia
Nuvole Sereno
Raffreddamento del vento 46 °F
Punto di rugiada 43 °F
Umidità 90%
Piovosità 0.00 in
Spessore del manto nevoso Non disponibile.
Raggi UV 0 fuori da 12
Polline 7.90 fuori da 12
Qualità dell'aria Non disponibile.
Flu Activity Non disponibile.
METAR KOXR 021051Z AUTO 04006KT 10SM CLR 09/06 A2990 RMK AO2 SLP123 T00890056

More Conditions Fewer Conditions

10-Day Weather Forecast

Almanac

Astronomia

Mar. 02, 2015 Alba Tramonto
Ora attuale
Crepuscolo civile
Crepuscolo nautico
Crepuscolo astronomico
Luna
Estensione della luce visibile
Lunghezza del giorno
Tomorrow will be .
, % of the Moon is Illuminated

Gli estremi di oggi

State Highs State Lows

Community

WunderPhotos

Upload Photos

1,801,756 foto caricate!

WunderBlogs® & News

Nearby

Qualità dell'aria

  Qualità dell'aria Indice AQ Inquinante
Not available.

Profondità neve

Stazione Profondità Altitudine

Attività sismica

Città  Distanza Mag. Data & Ora
Minimo Magnitudo Mostrato è 2.5.

Temperature delle acque costiere

Località Temperatura

Stazioni meteo nelle vicinanze